createdAt,value
2023-02-02T01:10:54.207Z,99994.00
2023-02-02T01:37:37.135Z,100001.50
2023-02-02T01:41:39.628Z,100006.94
2023-02-02T02:06:21.235Z,99966.66
2023-02-02T02:14:31.713Z,99950.81
2023-02-02T02:18:52.073Z,99957.25
2023-02-02T02:40:49.198Z,99968.34
2023-02-02T02:44:20.203Z,99971.00
2023-02-02T02:55:42.177Z,99979.59
2023-02-02T03:00:16.653Z,99989.75
2023-02-02T03:22:46.573Z,99996.19
2023-02-02T03:29:30.649Z,99995.69
2023-02-02T03:36:19.689Z,100008.78
2023-02-02T03:39:48.175Z,100005.81
2023-02-02T03:43:08.833Z,100008.72
2023-02-02T03:46:41.008Z,100012.00
2023-02-02T04:07:38.259Z,99987.16
2023-02-02T04:18:40.148Z,99959.34
2023-02-02T04:22:13.153Z,99964.19
2023-02-02T04:25:33.885Z,99950.84
2023-02-02T04:29:35.717Z,99960.47
2023-02-02T04:32:41.903Z,99981.28
2023-02-02T04:36:00.988Z,99966.31
2023-02-02T05:00:59.763Z,99966.06
2023-02-02T05:12:13.467Z,99965.78
2023-02-02T05:15:24.198Z,99963.09
2023-02-02T05:18:41.166Z,99949.78
2023-02-02T05:21:45.641Z,99976.72
2023-02-02T05:24:47.972Z,99981.81
2023-02-02T05:27:50.771Z,99992.44
2023-02-02T05:30:53.204Z,100011.66
2023-02-02T05:33:55.896Z,100007.91
2023-02-02T05:36:58.226Z,100025.00
2023-02-02T05:40:00.997Z,100027.41
2023-02-02T05:43:04.388Z,100025.53
2023-02-02T05:46:07.304Z,100018.28
2023-02-02T05:49:13.698Z,100034.31
2023-02-02T05:52:19.162Z,100027.69
2023-02-02T05:55:21.589Z,100037.78
2023-02-02T05:58:24.572Z,100054.56
2023-02-02T06:01:27.096Z,100054.78
2023-02-02T06:04:30.001Z,100057.53
2023-02-02T06:07:32.269Z,100052.44
2023-02-02T06:10:34.814Z,100056.78
2023-02-02T06:13:37.315Z,100062.41
2023-02-02T06:16:39.906Z,100055.44
2023-02-02T06:19:42.193Z,100052.28
2023-02-02T06:22:45.225Z,100040.25
2023-02-02T06:25:47.748Z,100046.38
2023-02-02T06:28:52.813Z,100042.38
2023-02-02T06:31:55.930Z,100049.59
2023-02-02T06:34:59.937Z,100057.09
2023-02-02T06:38:02.172Z,100056.56
2023-02-02T06:41:05.550Z,100058.69
2023-02-02T06:44:07.943Z,100053.09
2023-02-02T06:47:10.388Z,100065.41
2023-02-02T06:50:12.695Z,100065.94
2023-02-02T06:53:15.939Z,100052.84
2023-02-02T06:56:19.560Z,100050.19
2023-02-02T06:59:22.866Z,100046.94
2023-02-02T07:02:25.363Z,100048.03
2023-02-02T07:09:02.215Z,100062.47
2023-02-02T07:12:09.917Z,100061.41
2023-02-02T07:15:15.421Z,100065.38
2023-02-02T07:18:18.481Z,100056.03
2023-02-02T07:21:23.139Z,100068.31
2023-02-02T07:24:27.520Z,100078.47
2023-02-02T07:27:32.752Z,100075.25
2023-02-02T07:30:35.405Z,100074.19
2023-02-02T07:33:40.117Z,100095.81
2023-02-02T07:36:42.715Z,100100.88
2023-02-02T07:39:45.013Z,100112.34
2023-02-02T07:42:48.840Z,100105.47
2023-02-02T07:45:51.057Z,100114.25
2023-02-02T07:48:57.794Z,100124.94
2023-02-02T07:52:00.118Z,100147.12
2023-02-02T07:55:14.480Z,100137.28
2023-02-02T07:58:25.635Z,100151.47
2023-02-02T08:01:28.884Z,100144.50
2023-02-02T08:04:33.512Z,100145.84
2023-02-02T08:07:37.530Z,100135.97
2023-02-02T08:10:40.139Z,100147.75
2023-02-02T08:13:43.791Z,100146.41
2023-02-02T08:16:46.187Z,100144.53
2023-02-02T08:19:48.544Z,100152.81
2023-02-02T08:22:51.284Z,100141.31
2023-02-02T08:26:06.505Z,100141.81
2023-02-02T08:29:17.162Z,100146.88
2023-02-02T08:32:19.511Z,100124.84
2023-02-02T08:35:25.599Z,100154.06
2023-02-02T08:42:25.408Z,100143.25
2023-02-02T08:46:02.282Z,100149.41
2023-02-02T08:52:35.069Z,100134.31
2023-02-02T08:55:41.531Z,100127.38
2023-02-02T08:58:50.581Z,100131.63
2023-02-02T09:01:53.092Z,100132.66
2023-02-02T09:04:56.253Z,100135.25
2023-02-02T09:08:12.906Z,100137.94
2023-02-02T09:11:19.593Z,100129.31
2023-02-02T09:14:21.830Z,100133.53
2023-02-02T09:17:24.451Z,100127.59
2023-02-02T09:20:27.940Z,100132.72
2023-02-02T09:23:32.366Z,100144.03
2023-02-02T09:26:37.849Z,100142.59
2023-02-02T09:29:44.330Z,100137.56
2023-02-02T09:32:50.039Z,100139.41
2023-02-02T09:35:53.939Z,100137.97
2023-02-02T09:39:02.476Z,100146.16
2023-02-02T09:42:35.855Z,100143.84
2023-02-02T09:46:07.032Z,100138.38
2023-02-02T09:49:13.572Z,100148.41
2023-02-02T09:52:24.522Z,100164.12
2023-02-02T09:56:05.495Z,100164.25
2023-02-02T09:59:22.331Z,100162.63
2023-02-02T10:02:42.931Z,100163.44
2023-02-02T10:05:55.712Z,100169.25
2023-02-02T10:09:09.838Z,100186.00
2023-02-02T10:12:12.400Z,100170.84
2023-02-02T10:15:33.702Z,100171.56
2023-02-02T10:23:12.547Z,100171.38
2023-02-02T10:26:19.139Z,100177.62
2023-02-02T10:29:24.543Z,100158.25
2023-02-02T10:33:01.552Z,100165.38
2023-02-02T10:40:43.695Z,100160.16
2023-02-02T10:43:59.799Z,100165.72
2023-02-02T10:47:08.827Z,100147.94
2023-02-02T10:50:14.686Z,100157.09
2023-02-02T10:53:21.396Z,100159.50
2023-02-02T10:56:37.291Z,100159.28
2023-02-02T11:00:05.999Z,100176.34
2023-02-02T11:03:12.428Z,100172.13
2023-02-02T11:06:35.371Z,100178.12
2023-02-02T11:09:40.996Z,100178.81
2023-02-02T11:12:50.766Z,100183.75
2023-02-02T11:16:15.653Z,100194.44
2023-02-02T11:19:18.972Z,100173.78
2023-02-02T11:22:25.640Z,100171.06
2023-02-02T11:25:37.181Z,100187.06
2023-02-02T11:28:40.179Z,100180.97
2023-02-02T11:31:43.376Z,100180.97
2023-02-02T11:34:45.941Z,100174.94
2023-02-02T11:38:01.033Z,100171.09
2023-02-02T11:41:11.120Z,100188.38
2023-02-02T11:44:26.434Z,100196.63
2023-02-02T11:47:33.851Z,100186.78
2023-02-02T11:50:36.862Z,100207.31
2023-02-02T11:53:47.704Z,100207.47
2023-02-02T11:56:51.869Z,100207.94
2023-02-02T12:00:06.219Z,100201.19
2023-02-02T12:03:23.817Z,100214.50
2023-02-02T12:06:34.025Z,100205.06
2023-02-02T12:09:36.224Z,100197.56
2023-02-02T12:12:53.014Z,100191.66
2023-02-02T12:15:58.503Z,100192.22
2023-02-02T12:19:19.342Z,100193.88
2023-02-02T12:22:46.673Z,100192.03
2023-02-02T12:26:11.400Z,100189.06
2023-02-02T12:29:19.627Z,100189.06
2023-02-02T12:32:45.783Z,100189.59
2023-02-02T12:36:00.154Z,100197.50
2023-02-02T12:39:34.481Z,100191.09
2023-02-02T12:43:01.332Z,100192.22
2023-02-02T12:46:54.496Z,100189.16
2023-02-02T12:50:18.585Z,100192.34
2023-02-02T12:54:32.772Z,100189.50
2023-02-02T12:57:43.928Z,100189.13
2023-02-02T13:00:46.345Z,100177.47
2023-02-02T13:04:07.557Z,100183.59
2023-02-02T13:07:26.406Z,100181.94
2023-02-02T13:10:35.279Z,100228.91
2023-02-02T13:13:39.622Z,100190.72
2023-02-02T13:16:48.564Z,100193.78
2023-02-02T13:19:56.107Z,100193.03
2023-02-02T13:23:02.641Z,100204.88
2023-02-02T13:26:12.904Z,100201.75
2023-02-02T13:29:35.220Z,100198.09
2023-02-02T13:32:53.722Z,100203.88
2023-02-02T13:36:00.460Z,100212.84
2023-02-02T13:39:16.946Z,100197.88
2023-02-02T13:42:32.345Z,100203.47
2023-02-02T13:45:53.269Z,100207.75
2023-02-02T13:49:07.321Z,100203.81
2023-02-02T13:52:32.691Z,100207.28
2023-02-02T13:56:09.443Z,100202.69
2023-02-02T13:59:30.846Z,100206.63
2023-02-02T14:02:33.107Z,100202.28
2023-02-02T14:05:38.795Z,100199.59
2023-02-02T14:08:48.025Z,100199.94
2023-02-02T14:11:57.525Z,100205.59
2023-02-02T14:15:00.455Z,100210.97
2023-02-02T14:18:03.073Z,100202.97
2023-02-02T14:21:05.498Z,100203.00
2023-02-02T14:24:26.416Z,100209.19
2023-02-02T14:27:28.578Z,100216.22
2023-02-02T14:30:34.930Z,100213.00
2023-02-02T14:33:47.245Z,100208.16
2023-02-02T14:37:23.546Z,100212.69
2023-02-02T14:40:58.024Z,100206.94
2023-02-02T14:44:04.663Z,100217.59
2023-02-02T14:47:44.845Z,100224.00
2023-02-02T14:50:52.744Z,100222.56
2023-02-02T14:54:01.462Z,100244.25
2023-02-02T14:57:25.269Z,100222.22
2023-02-02T15:00:35.379Z,100233.03
2023-02-02T15:03:45.828Z,100238.41
2023-02-02T15:06:50.984Z,100251.53
2023-02-02T15:09:58.147Z,100244.19
2023-02-02T15:13:07.510Z,100250.22
2023-02-02T15:16:20.657Z,100247.03
2023-02-02T15:19:32.352Z,100250.91
2023-02-02T15:22:37.776Z,100269.62
2023-02-02T15:25:51.663Z,100256.75
2023-02-02T15:29:05.691Z,100260.28
2023-02-02T15:32:17.072Z,100248.97
2023-02-02T15:35:23.802Z,100264.34
2023-02-02T15:38:34.737Z,100275.22
2023-02-02T15:41:41.286Z,100278.34
2023-02-02T15:44:43.479Z,100277.31
2023-02-02T15:47:46.046Z,100289.41
2023-02-02T15:50:51.220Z,100286.25
2023-02-02T15:53:54.789Z,100294.31
2023-02-02T15:57:00.315Z,100288.41
2023-02-02T16:00:30.795Z,100299.75
2023-02-02T16:03:55.365Z,100314.53
2023-02-02T16:06:57.969Z,100305.41
2023-02-02T16:10:06.653Z,100310.78
2023-02-02T16:13:21.317Z,100324.53
2023-02-02T16:16:29.874Z,100313.22
2023-02-02T16:19:32.271Z,100314.56
2023-02-02T16:22:37.205Z,100334.41
2023-02-02T16:25:49.615Z,100333.56
2023-02-02T16:28:52.226Z,100330.91
2023-02-02T16:31:55.931Z,100339.22
2023-02-02T16:34:59.023Z,100337.88
2023-02-02T16:38:20.019Z,100342.94
2023-02-02T16:41:27.368Z,100340.25
2023-02-02T16:44:43.829Z,100347.50
2023-02-02T16:47:46.371Z,100359.88
2023-02-02T16:51:06.280Z,100368.19
2023-02-02T16:54:08.640Z,100366.31
2023-02-02T16:57:18.707Z,100391.22
2023-02-02T17:00:25.178Z,100392.53
2023-02-02T17:03:33.454Z,100391.47
2023-02-02T17:06:51.306Z,100396.03
2023-02-02T17:10:20.285Z,100389.91
2023-02-02T17:13:32.406Z,100398.44
2023-02-02T17:16:34.606Z,100397.13
2023-02-02T17:19:37.055Z,100422.03
2023-02-02T17:22:45.653Z,100415.31
2023-02-02T17:25:48.344Z,100426.03
2023-02-02T17:28:54.999Z,100416.13
2023-02-02T17:31:57.529Z,100431.16
2023-02-02T17:34:59.643Z,100424.69
2023-02-02T17:38:02.087Z,100446.16
2023-02-02T17:41:04.665Z,100444.00
2023-02-02T17:44:09.199Z,100448.31
2023-02-02T17:47:13.233Z,100442.66
2023-02-02T17:50:16.110Z,100451.50
2023-02-02T17:53:21.675Z,100465.13
2023-02-02T17:56:24.208Z,100471.06
2023-02-02T17:59:26.505Z,100473.44
2023-02-02T18:02:29.017Z,100464.06
2023-02-02T18:05:31.538Z,100475.59
2023-02-02T18:08:33.960Z,100482.03
2023-02-02T18:11:36.744Z,100483.88
2023-02-02T18:14:39.271Z,100480.41
2023-02-02T18:17:42.368Z,100470.22
2023-02-02T18:20:49.549Z,100470.22
2023-02-02T18:23:52.156Z,100468.63
2023-02-02T18:26:54.325Z,100480.94
2023-02-02T18:29:57.009Z,100472.66
2023-02-02T18:32:59.827Z,100478.00
2023-02-02T18:36:06.844Z,100475.84
2023-02-02T18:39:09.909Z,100484.69
2023-02-02T18:42:12.678Z,100486.84
2023-02-02T18:45:14.887Z,100509.88
2023-02-02T18:48:19.512Z,100490.03
2023-02-02T18:51:21.979Z,100498.88
2023-02-02T18:54:24.636Z,100488.94
2023-02-02T18:57:30.293Z,100497.00
2023-02-02T19:00:32.785Z,100498.34
2023-02-02T19:03:36.605Z,100501.81
2023-02-02T19:06:57.884Z,100501.28
2023-02-02T19:10:00.037Z,100499.13
2023-02-02T19:13:05.238Z,100490.53
2023-02-02T19:16:14.581Z,100509.81
2023-02-02T19:19:29.125Z,100509.28
2023-02-02T19:22:32.490Z,100519.47
2023-02-02T19:25:36.418Z,100521.87
2023-02-02T19:28:39.289Z,100529.09
2023-02-02T19:31:43.389Z,100526.97
2023-02-02T19:34:46.681Z,100525.88
2023-02-02T19:37:52.835Z,100525.84
2023-02-02T19:40:55.558Z,100524.47
2023-02-02T19:44:16.768Z,100550.19
2023-02-02T19:47:30.345Z,100544.34
2023-02-02T19:50:38.719Z,100538.69
2023-02-02T19:53:40.893Z,100535.19
2023-02-02T19:56:43.312Z,100535.25
2023-02-02T19:59:47.957Z,100539.72
2023-02-02T20:03:04.957Z,100559.47
2023-02-02T20:06:16.833Z,100560.06
2023-02-02T20:09:20.354Z,100555.28
2023-02-02T20:12:31.565Z,100566.47
2023-02-02T20:15:35.892Z,100571.31
2023-02-02T20:18:44.239Z,100585.75
2023-02-02T20:21:50.046Z,100590.22
2023-02-02T20:24:52.906Z,100575.53
2023-02-02T20:27:58.821Z,100572.37
2023-02-02T20:31:03.800Z,100599.84
2023-02-02T20:34:20.861Z,100603.41
2023-02-02T20:37:27.048Z,100612.00
2023-02-02T20:40:30.351Z,100614.34
2023-02-02T20:43:32.867Z,100628.25
2023-02-02T20:46:35.243Z,100631.16
2023-02-02T20:49:38.595Z,100623.66
2023-02-02T20:52:41.261Z,100630.41
2023-02-02T20:55:44.694Z,100631.97
2023-02-02T20:58:46.827Z,100635.62
2023-02-02T21:01:52.951Z,100646.00
2023-02-02T21:04:55.360Z,100648.94
2023-02-02T21:07:57.859Z,100656.50
2023-02-02T21:11:00.234Z,100661.25
2023-02-02T21:14:02.823Z,100666.75
2023-02-02T21:17:14.823Z,100679.03
2023-02-02T21:20:17.804Z,100675.75
2023-02-02T21:23:21.597Z,100680.78
2023-02-02T21:26:30.632Z,100675.06
2023-02-02T21:29:33.604Z,100669.12
2023-02-02T21:32:35.780Z,100685.16
2023-02-02T21:35:38.264Z,100668.00
2023-02-02T21:38:40.431Z,100663.94
2023-02-02T21:41:43.339Z,100664.31
2023-02-02T21:44:53.493Z,100667.69
2023-02-02T21:47:59.521Z,100670.87
2023-02-02T21:51:22.893Z,100675.69
2023-02-02T21:54:27.229Z,100684.72
2023-02-02T21:57:37.042Z,100679.94
2023-02-02T22:00:39.508Z,100698.09
2023-02-02T22:03:46.459Z,100695.53
2023-02-02T22:07:15.585Z,100696.06
2023-02-02T22:10:20.730Z,100702.38
2023-02-02T22:13:24.933Z,100702.50
2023-02-02T22:16:27.519Z,100708.31
2023-02-02T22:19:34.175Z,100713.53
2023-02-02T22:22:40.316Z,100705.00
2023-02-02T22:25:44.019Z,100715.09
2023-02-02T22:28:46.459Z,100718.53
2023-02-02T22:31:48.754Z,100721.16
2023-02-02T22:34:51.841Z,100723.38
2023-02-02T22:37:54.056Z,100726.28
2023-02-02T22:40:57.058Z,100727.84
2023-02-02T22:43:59.243Z,100732.31
2023-02-02T22:47:02.383Z,100747.47
2023-02-02T22:50:07.219Z,100744.53
2023-02-02T22:53:15.390Z,100752.28
2023-02-02T22:56:17.563Z,100755.97
2023-02-02T22:59:20.081Z,100760.53
2023-02-02T23:02:22.264Z,100759.50
2023-02-02T23:05:26.059Z,100763.72
2023-02-02T23:08:28.223Z,100757.56
2023-02-02T23:11:30.717Z,100791.91
2023-02-02T23:14:33.290Z,100782.50
2023-02-02T23:17:35.768Z,100794.59
2023-02-02T23:20:38.049Z,100790.25
2023-02-02T23:23:40.621Z,100796.47
2023-02-02T23:26:42.938Z,100797.75
2023-02-02T23:29:45.425Z,100811.81
2023-02-02T23:32:48.027Z,100798.94
2023-02-02T23:35:50.468Z,100802.94
2023-02-02T23:38:52.718Z,100804.78
2023-02-02T23:41:55.148Z,100805.63
2023-02-02T23:44:57.380Z,100812.56
2023-02-02T23:47:59.943Z,100818.16
2023-02-02T23:51:02.187Z,100822.16
2023-02-02T23:54:05.249Z,100821.28
2023-02-02T23:57:07.413Z,100829.97
